Time;durP1;ratioP1;P1;durP2;ratioP2;P2;SDS_P1;SDS_P2;PMS_P1;PMS_P2;Temp;Humidity;BMP_temperature;BMP_pressure;BME280_temperature;BME280_humidity;BME280_pressure;Samples;Min_cycle;Max_cycle;Signal;HPM_P1;HPM_P2
2023/02/07 00:01:42;;;;;;;24.20;12.70;;;;;;;-7.86;100.00;101378.00;105983;1254;60565;-59
2023/02/07 00:04:11;;;;;;;26.00;13.00;;;;;;;-7.86;100.00;101373.09;105787;1254;73930;-55
2023/02/07 00:06:39;;;;;;;27.60;13.70;;;;;;;-7.85;100.00;101375.10;105699;1256;67723;-57
2023/02/07 00:09:09;;;;;;;26.30;13.00;;;;;;;-7.85;100.00;101372.42;105762;1254;73754;-58
2023/02/07 00:11:39;;;;;;;27.50;13.30;;;;;;;-7.88;100.00;101371.32;105755;1257;60770;-55
2023/02/07 00:14:09;;;;;;;24.60;12.70;;;;;;;-7.95;100.00;101362.55;105461;1252;62086;-55
2023/02/07 00:16:39;;;;;;;24.70;11.80;;;;;;;-8.03;100.00;101367.48;105645;1253;75409;-55
2023/02/07 00:19:07;;;;;;;27.50;13.30;;;;;;;-8.10;100.00;101366.11;105810;1258;67550;-58
2023/02/07 00:21:36;;;;;;;28.40;13.60;;;;;;;-8.15;100.00;101360.66;107988;1253;74225;-57
2023/02/07 00:24:05;;;;;;;31.10;14.20;;;;;;;-8.16;100.00;101363.88;106826;1254;60929;-56
2023/02/07 00:26:33;;;;;;;25.40;11.90;;;;;;;-8.18;100.00;101366.48;106363;1253;61897;-57
2023/02/07 00:29:02;;;;;;;24.00;12.80;;;;;;;-8.22;100.00;101369.61;105816;1254;75358;-56
2023/02/07 00:31:32;;;;;;;28.80;14.40;;;;;;;-8.26;100.00;101372.91;105850;1256;67586;-57
2023/02/07 00:34:06;;;;;;;31.40;13.80;;;;;;;-8.29;100.00;101368.41;105582;1254;74504;-55
2023/02/07 00:36:38;;;;;;;28.70;15.10;;;;;;;-8.32;100.00;101369.98;105479;1254;62104;-55
2023/02/07 00:39:11;;;;;;;24.30;12.90;;;;;;;-8.36;100.00;101370.95;105585;1257;60755;-56
2023/02/07 00:41:40;;;;;;;25.90;13.20;;;;;;;-8.43;100.00;101366.73;105911;1254;74266;-55
2023/02/07 00:44:09;;;;;;;28.70;13.70;;;;;;;-8.53;100.00;101372.54;105683;1254;68607;-55
2023/02/07 00:46:38;;;;;;;27.50;12.90;;;;;;;-8.62;100.00;101375.43;105829;1255;73206;-54
2023/02/07 00:49:07;;;;;;;25.40;12.40;;;;;;;-8.73;100.00;101380.04;105873;1254;63584;-56
2023/02/07 00:51:37;;;;;;;24.60;11.60;;;;;;;-8.85;100.00;101382.99;105728;1256;60786;-55
2023/02/07 00:54:06;;;;;;;25.50;12.00;;;;;;;-8.94;100.00;101385.02;105849;1254;72764;-54
2023/02/07 00:56:36;;;;;;;25.90;12.10;;;;;;;-8.99;100.00;101384.48;105779;1256;68328;-55
2023/02/07 00:59:04;;;;;;;25.50;12.30;;;;;;;-9.05;100.00;101386.10;106075;1254;74224;-57
2023/02/07 01:01:35;;;;;;;25.50;11.30;;;;;;;-9.11;100.00;101387.05;105582;1257;63431;-54
2023/02/07 01:04:04;;;;;;;26.80;12.40;;;;;;;-9.17;100.00;101390.52;106209;1256;62106;-56
2023/02/07 01:06:35;;;;;;;23.60;9.70;;;;;;;-9.22;100.00;101389.13;105855;1253;74111;-55
2023/02/07 01:09:04;;;;;;;28.30;11.70;;;;;;;-9.28;100.00;101379.29;106084;1257;67104;-58
2023/02/07 01:11:33;;;;;;;26.30;12.40;;;;;;;-9.33;100.00;101376.70;105838;1254;72430;-55
2023/02/07 01:14:02;;;;;;;25.00;12.10;;;;;;;-9.37;100.00;101378.30;105878;1254;61777;-54
2023/02/07 01:16:33;;;;;;;25.80;11.40;;;;;;;-9.42;100.00;101377.88;105972;1256;61166;-59
2023/02/07 01:19:05;;;;;;;28.20;14.50;;;;;;;-9.46;100.00;101373.09;105912;1256;75745;-58
2023/02/07 01:21:33;;;;;;;24.50;12.90;;;;;;;-9.51;100.00;101377.72;105728;1259;66853;-55
2023/02/07 01:24:05;;;;;;;27.70;13.60;;;;;;;-9.56;100.00;101374.95;106012;1255;73977;-55
2023/02/07 01:26:35;;;;;;;30.20;12.80;;;;;;;-9.59;100.00;101375.51;105929;1257;60857;-54
2023/02/07 01:29:04;;;;;;;24.90;11.30;;;;;;;-9.63;100.00;101377.59;106133;1256;60441;-58
2023/02/07 01:31:32;;;;;;;29.80;12.40;;;;;;;-9.68;100.00;101379.52;105888;1256;75386;-55
2023/02/07 01:34:01;;;;;;;27.70;12.70;;;;;;;-9.73;100.00;101381.96;106370;1253;67777;-55
2023/02/07 01:36:33;;;;;;;28.90;12.80;;;;;;;-9.75;100.00;101381.35;105874;1256;73085;-55
2023/02/07 01:39:02;;;;;;;23.30;11.50;;;;;;;-9.77;100.00;101380.52;105719;1251;60833;-56
2023/02/07 01:41:34;;;;;;;25.00;12.30;;;;;;;-9.80;100.00;101378.23;105677;1256;60846;-55
2023/02/07 01:44:06;;;;;;;27.00;12.60;;;;;;;-9.81;100.00;101378.74;105780;1258;74287;-57
2023/02/07 01:46:36;;;;;;;31.30;13.20;;;;;;;-9.80;100.00;101385.48;105682;1254;68548;-55
2023/02/07 01:49:07;;;;;;;26.80;12.20;;;;;;;-9.82;100.00;101391.88;105809;1254;74051;-57
2023/02/07 01:51:36;;;;;;;24.90;12.20;;;;;;;-9.80;100.00;101394.39;105513;1258;62787;-54
2023/02/07 01:54:06;;;;;;;26.30;12.80;;;;;;;-9.83;100.00;101400.98;105883;1259;60828;-55
2023/02/07 01:56:37;;;;;;;21.70;9.50;;;;;;;-9.86;100.00;101402.22;105701;1253;74289;-54
2023/02/07 01:59:05;;;;;;;26.20;12.10;;;;;;;-9.90;100.00;101394.02;105609;1254;68413;-57
2023/02/07 02:01:35;;;;;;;28.30;11.60;;;;;;;-9.93;100.00;101394.60;105539;1254;74164;-54
2023/02/07 02:04:03;;;;;;;26.60;13.10;;;;;;;-9.97;100.00;101398.35;106124;1254;62617;-54
2023/02/07 02:06:32;;;;;;;25.90;12.30;;;;;;;-9.99;100.00;101401.41;105569;1254;61318;-54
2023/02/07 02:09:19;;;;;;;30.10;13.50;;;;;;;-10.02;100.00;101404.82;105370;1256;73543;-55
2023/02/07 02:12:10;;;;;;;30.50;13.00;;;;;;;-10.02;100.00;101410.71;105643;1253;68100;-54
2023/02/07 02:14:52;;;;;;;29.20;13.50;;;;;;;-10.02;100.00;101412.05;105254;1254;73160;-53
2023/02/07 02:17:24;;;;;;;23.30;11.00;;;;;;;-10.01;100.00;101415.22;105548;1254;63028;-56
2023/02/07 02:20:13;;;;;;;25.80;11.40;;;;;;;-10.00;100.00;101416.55;105805;1254;60823;-54
2023/02/07 02:22:54;;;;;;;27.40;11.60;;;;;;;-9.99;100.00;101414.37;105362;1254;75267;-55
2023/02/07 02:25:44;;;;;;;27.40;12.00;;;;;;;-10.01;100.00;101417.41;105219;1254;68581;-56
2023/02/07 02:28:32;;;;;;;31.10;13.60;;;;;;;-10.03;100.00;101420.98;105224;1254;73007;-55
2023/02/07 02:31:06;;;;;;;29.30;13.10;;;;;;;-10.07;100.00;101418.00;105459;1254;289006;-55
2023/02/07 02:33:41;;;;;;;25.50;12.40;;;;;;;-10.08;100.00;101413.81;105398;1256;61604;-55
2023/02/07 02:36:38;;;;;;;26.30;12.00;;;;;;;-10.09;100.00;101408.96;105383;1254;73811;-55
2023/02/07 02:39:26;;;;;;;27.00;11.90;;;;;;;-10.12;100.00;101407.99;105446;1256;68890;-53
2023/02/07 02:42:16;;;;;;;28.60;12.70;;;;;;;-10.15;100.00;101407.20;105604;1257;74223;-55
2023/02/07 02:44:52;;;;;;;23.30;11.30;;;;;;;-10.17;100.00;101413.46;105179;1254;62564;-54
2023/02/07 02:47:20;;;;;;;27.50;13.50;;;;;;;-10.20;100.00;101412.48;105533;1256;60558;-55
2023/02/07 02:49:49;;;;;;;24.00;11.10;;;;;;;-10.23;100.00;101415.55;105419;1254;74385;-54
2023/02/07 02:52:18;;;;;;;24.40;11.50;;;;;;;-10.24;100.00;101413.73;105512;1259;68661;-58
2023/02/07 02:54:47;;;;;;;23.60;10.90;;;;;;;-10.28;100.00;101420.88;105402;1254;74773;-53
2023/02/07 02:57:40;;;;;;;27.00;11.80;;;;;;;-10.31;100.00;101416.38;105713;1253;61440;-55
2023/02/07 03:00:19;;;;;;;29.20;13.10;;;;;;;-10.33;100.00;101415.23;105796;1256;60024;-57
2023/02/07 03:03:14;;;;;;;23.40;11.40;;;;;;;-10.34;100.00;101415.73;105386;1252;74136;-55
2023/02/07 03:05:43;;;;;;;29.70;12.90;;;;;;;-10.36;100.00;101411.91;105885;1256;67615;-57
2023/02/07 03:08:24;;;;;;;26.70;13.10;;;;;;;-10.37;100.00;101411.44;105682;1256;72203;-54
2023/02/07 03:10:56;;;;;;;26.30;11.60;;;;;;;-10.41;100.00;101415.18;105335;1259;62424;-54
2023/02/07 03:13:44;;;;;;;29.90;14.20;;;;;;;-10.45;100.00;101411.71;105884;1256;60987;-57
2023/02/07 03:16:13;;;;;;;34.20;14.80;;;;;;;-10.51;100.00;101417.67;105689;1258;75097;-55
2023/02/07 03:19:05;;;;;;;31.30;13.30;;;;;;;-10.57;100.00;101419.25;105692;1254;68065;-55
2023/02/07 03:21:42;;;;;;;32.60;14.50;;;;;;;-10.62;100.00;101427.38;105757;1253;73261;-54
2023/02/07 03:24:16;;;;;;;28.20;12.70;;;;;;;-10.66;100.00;101429.13;106020;1256;62599;-58
2023/02/07 03:26:45;;;;;;;30.00;14.60;;;;;;;-10.69;100.00;101433.02;105492;1253;61155;-54
2023/02/07 03:29:14;;;;;;;32.90;15.10;;;;;;;-10.73;100.00;101436.27;105438;1254;75338;-56
2023/02/07 03:31:43;;;;;;;29.60;13.90;;;;;;;-10.77;100.00;101436.15;105854;1257;68389;-56
2023/02/07 03:34:14;;;;;;;33.00;14.30;;;;;;;-10.81;100.00;101435.36;105692;1254;74190;-55
2023/02/07 03:36:48;;;;;;;32.00;15.70;;;;;;;-10.86;100.00;101435.91;105743;1257;63247;-56
2023/02/07 03:39:17;;;;;;;33.00;16.30;;;;;;;-10.89;100.00;101437.63;105696;1254;61901;-54
2023/02/07 03:41:50;;;;;;;35.70;17.30;;;;;;;-10.92;100.00;101436.64;105673;1254;75243;-54
2023/02/07 03:44:20;;;;;;;30.60;14.30;;;;;;;-10.95;100.00;101437.86;105548;1253;67770;-56
2023/02/07 03:46:49;;;;;;;32.30;16.00;;;;;;;-10.97;100.00;101438.57;105575;1255;72939;-55
2023/02/07 03:49:18;;;;;;;33.10;14.60;;;;;;;-11.00;100.00;101438.59;105289;1256;63306;-55
2023/02/07 03:51:47;;;;;;;32.50;16.70;;;;;;;-11.02;100.00;101447.69;105740;1254;61335;-58
2023/02/07 03:54:15;;;;;;;36.10;15.40;;;;;;;-11.05;100.00;101447.05;105331;1256;73932;-54
2023/02/07 03:56:44;;;;;;;31.10;14.80;;;;;;;-11.08;100.00;101450.27;105505;1257;68533;-55
2023/02/07 03:59:13;;;;;;;39.30;16.60;;;;;;;-11.12;100.00;101452.48;105432;1252;74175;-54
2023/02/07 04:01:43;;;;;;;39.30;16.20;;;;;;;-11.15;100.00;101447.66;105643;1257;63541;-56
2023/02/07 04:04:11;;;;;;;29.40;14.10;;;;;;;-11.18;100.00;101457.08;105597;1258;60354;-56
2023/02/07 04:06:41;;;;;;;34.70;15.60;;;;;;;-11.21;100.00;101455.43;105677;1254;75350;-56
2023/02/07 04:09:11;;;;;;;29.90;14.80;;;;;;;-11.24;100.00;101458.66;105425;1254;68657;-54
2023/02/07 04:11:41;;;;;;;33.90;15.00;;;;;;;-11.26;100.00;101458.50;105596;1259;73160;-58
2023/02/07 04:14:09;;;;;;;31.20;14.90;;;;;;;-11.29;100.00;101460.21;105274;1259;63701;-54
2023/02/07 04:16:38;;;;;;;33.40;15.90;;;;;;;-11.32;100.00;101461.08;105547;1254;61854;-57
2023/02/07 04:19:06;;;;;;;31.40;15.00;;;;;;;-11.36;100.00;101465.83;105214;1259;75386;-55
2023/02/07 04:21:35;;;;;;;25.40;12.70;;;;;;;-11.39;100.00;101468.20;105797;1254;68634;-55
2023/02/07 04:24:04;;;;;;;35.50;14.80;;;;;;;-11.40;100.00;101472.23;105161;1254;72761;-54
2023/02/07 04:26:34;;;;;;;45.60;14.60;;;;;;;-11.43;100.00;101470.40;105412;1257;62565;-55
2023/02/07 04:29:02;;;;;;;30.00;13.80;;;;;;;-11.45;100.00;101466.56;105355;1259;61315;-54
2023/02/07 04:31:31;;;;;;;30.20;14.50;;;;;;;-11.46;100.00;101465.75;105570;1255;74598;-55
2023/02/07 04:34:00;;;;;;;28.70;13.40;;;;;;;-11.48;100.00;101469.95;105437;1258;68378;-54
2023/02/07 04:36:29;;;;;;;30.10;14.40;;;;;;;-11.51;100.00;101468.80;105461;1254;73281;-56
2023/02/07 04:38:58;;;;;;;29.40;13.40;;;;;;;-11.54;100.00;101471.35;105389;1259;62557;-54
2023/02/07 04:41:30;;;;;;;32.10;14.30;;;;;;;-11.57;100.00;101480.77;105272;1253;61477;-57
2023/02/07 04:43:59;;;;;;;30.50;13.00;;;;;;;-11.60;100.00;101487.33;105088;1258;75172;-53
2023/02/07 04:46:27;;;;;;;30.50;15.10;;;;;;;-11.63;100.00;101484.34;105287;1254;68585;-54
2023/02/07 04:48:58;;;;;;;27.00;13.50;;;;;;;-11.65;100.00;101489.54;105419;1254;73127;-54
2023/02/07 04:51:27;;;;;;;31.00;13.30;;;;;;;-11.66;100.00;101489.90;105501;1254;62242;-54
2023/02/07 04:53:56;;;;;;;37.00;16.40;;;;;;;-11.68;100.00;101497.30;105392;1253;62130;-54
2023/02/07 04:56:25;;;;;;;32.60;15.00;;;;;;;-11.69;100.00;101496.29;105403;1253;75150;-54
2023/02/07 04:58:54;;;;;;;30.80;13.70;;;;;;;-11.70;100.00;101491.77;105509;1258;68574;-58
2023/02/07 05:01:24;;;;;;;34.80;13.30;;;;;;;-11.70;100.00;101499.98;105690;1259;73959;-58
2023/02/07 05:03:53;;;;;;;37.40;14.70;;;;;;;-11.71;100.00;101497.30;105627;1256;62955;-55
2023/02/07 05:06:21;;;;;;;30.70;14.40;;;;;;;-11.73;100.00;101499.67;105581;1256;61550;-53
2023/02/07 05:08:52;;;;;;;30.50;14.50;;;;;;;-11.75;100.00;101501.69;105580;1256;73908;-54
2023/02/07 05:11:21;;;;;;;26.70;13.30;;;;;;;-11.74;100.00;101499.84;105442;1254;68046;-54
2023/02/07 05:13:50;;;;;;;31.70;14.70;;;;;;;-11.73;100.00;101493.47;105676;1254;74155;-54
2023/02/07 05:16:18;;;;;;;29.70;13.20;;;;;;;-11.71;100.00;101498.14;105511;1254;63237;-54
2023/02/07 05:18:47;;;;;;;163.90;59.70;;;;;;;-11.69;100.00;101495.46;105777;1254;61641;-55
2023/02/07 05:21:16;;;;;;;69.20;26.60;;;;;;;-11.66;100.00;101490.05;105689;1256;75243;-58
2023/02/07 05:23:44;;;;;;;34.80;15.90;;;;;;;-11.60;100.00;101489.68;105590;1256;68655;-55
2023/02/07 05:26:13;;;;;;;37.90;17.00;;;;;;;-11.54;100.00;101495.33;105534;1254;74259;-56
2023/02/07 05:28:42;;;;;;;87.20;37.90;;;;;;;-11.46;100.00;101500.45;105769;1255;63398;-56
2023/02/07 05:31:11;;;;;;;149.50;63.30;;;;;;;-11.38;100.00;101489.31;105309;1252;61606;-58
2023/02/07 05:33:40;;;;;;;34.50;17.80;;;;;;;-11.28;100.00;101493.59;105501;1252;74172;-55
2023/02/07 05:36:09;;;;;;;34.90;18.70;;;;;;;-11.18;100.00;101493.15;105601;1256;68516;-55
2023/02/07 05:38:37;;;;;;;36.30;18.90;;;;;;;-11.07;100.00;101491.70;105472;1255;74148;-55
2023/02/07 05:41:06;;;;;;;33.40;17.10;;;;;;;-10.93;100.00;101492.23;105553;1257;61719;-55
2023/02/07 05:43:35;;;;;;;38.60;17.40;;;;;;;-10.75;100.00;101486.82;105526;1254;61916;-55
2023/02/07 05:46:04;;;;;;;32.30;15.20;;;;;;;-10.48;100.00;101481.80;105573;1256;75567;-56
2023/02/07 05:48:34;;;;;;;29.00;14.90;;;;;;;-10.14;100.00;101476.95;105374;1257;67597;-59
2023/02/07 05:51:02;;;;;;;28.80;14.10;;;;;;;-9.82;100.00;101480.02;105551;1253;72970;-54
2023/02/07 05:53:31;;;;;;;31.10;14.40;;;;;;;-9.50;100.00;101483.36;105762;1255;63942;-58
2023/02/07 05:56:00;;;;;;;27.70;12.20;;;;;;;-9.25;100.00;101478.08;105664;1252;60851;-55
2023/02/07 05:58:28;;;;;;;29.80;12.90;;;;;;;-9.09;100.00;101477.27;105829;1254;75655;-58
2023/02/07 06:00:58;;;;;;;30.00;14.20;;;;;;;-8.90;100.00;101477.75;105522;1254;67988;-56
2023/02/07 06:03:26;;;;;;;25.30;12.50;;;;;;;-8.79;100.00;101479.05;105928;1255;74233;-59
2023/02/07 06:05:56;;;;;;;27.70;13.60;;;;;;;-8.60;100.00;101469.76;105488;1254;61416;-55
2023/02/07 06:08:25;;;;;;;24.80;13.60;;;;;;;-8.36;100.00;101472.77;105505;1257;60459;-54
2023/02/07 06:10:56;;;;;;;22.60;12.20;;;;;;;-8.05;100.00;101474.45;105474;1256;74402;-54
2023/02/07 06:13:25;;;;;;;26.70;12.70;;;;;;;-7.74;100.00;101468.48;105587;1255;68413;-54
2023/02/07 06:15:54;;;;;;;28.80;13.00;;;;;;;-7.46;100.00;101465.27;105748;1254;73993;-55
2023/02/07 06:18:23;;;;;;;26.70;13.40;;;;;;;-7.31;100.00;101475.88;105659;1256;61776;-55
2023/02/07 06:20:52;;;;;;;26.70;14.30;;;;;;;-7.26;100.00;101473.02;105604;1254;60827;-54
2023/02/07 06:23:21;;;;;;;25.60;12.70;;;;;;;-7.26;100.00;101479.98;105691;1256;75276;-54
2023/02/07 06:25:50;;;;;;;23.30;13.00;;;;;;;-7.32;100.00;101481.97;105673;1257;68021;-55
2023/02/07 06:28:19;;;;;;;21.90;11.30;;;;;;;-7.46;100.00;101484.85;106088;1256;74134;-59
2023/02/07 06:30:50;;;;;;;23.90;12.20;;;;;;;-7.61;100.00;101484.89;105620;1256;61055;-56
2023/02/07 06:33:18;;;;;;;24.40;12.50;;;;;;;-7.57;100.00;101482.44;105459;1254;61722;-58
2023/02/07 06:35:47;;;;;;;22.40;12.10;;;;;;;-7.32;100.00;101483.00;105499;1254;74204;-56
2023/02/07 06:38:17;;;;;;;29.90;13.60;;;;;;;-7.16;100.00;101485.79;105458;1256;67616;-58
2023/02/07 06:40:45;;;;;;;21.80;11.10;;;;;;;-7.13;100.00;101493.83;105372;1256;73974;-55
2023/02/07 06:43:14;;;;;;;28.40;13.00;;;;;;;-6.86;100.00;101492.25;105617;1256;61155;-58
2023/02/07 06:45:43;;;;;;;23.60;12.60;;;;;;;-6.35;100.00;101497.41;105621;1256;61072;-55
2023/02/07 06:48:12;;;;;;;26.40;13.70;;;;;;;-5.82;100.00;101498.02;105644;1255;74344;-55
2023/02/07 06:50:41;;;;;;;25.60;13.40;;;;;;;-5.63;100.00;101500.46;105510;1256;68116;-55
2023/02/07 06:53:10;;;;;;;23.60;11.90;;;;;;;-6.03;100.00;101510.70;105555;1256;73274;-56
2023/02/07 06:55:39;;;;;;;26.90;12.10;;;;;;;-6.43;100.00;101518.95;105605;1257;61513;-56
2023/02/07 06:58:08;;;;;;;24.50;12.40;;;;;;;-6.50;100.00;101519.33;105617;1255;60857;-56
2023/02/07 07:00:37;;;;;;;25.50;12.90;;;;;;;-6.35;100.00;101521.79;105482;1256;75435;-59
2023/02/07 07:03:05;;;;;;;26.30;13.50;;;;;;;-6.12;100.00;101525.35;105738;1254;68478;-57
2023/02/07 07:05:34;;;;;;;21.00;12.50;;;;;;;-5.98;100.00;101523.42;105562;1257;74352;-56
2023/02/07 07:08:03;;;;;;;25.70;12.30;;;;;;;-5.82;100.00;101524.42;105781;1255;62704;-57
2023/02/07 07:10:32;;;;;;;22.90;12.20;;;;;;;-5.51;100.00;101525.98;105642;1256;61892;-56
2023/02/07 07:13:02;;;;;;;22.80;11.70;;;;;;;-5.18;100.00;101514.05;105654;1257;75397;-57
2023/02/07 07:15:31;;;;;;;30.30;13.90;;;;;;;-5.07;100.00;101509.96;105622;1257;67652;-56
2023/02/07 07:18:00;;;;;;;22.60;11.70;;;;;;;-4.93;100.00;101507.62;105898;1257;73150;-59
2023/02/07 07:20:29;;;;;;;21.10;12.30;;;;;;;-4.82;100.00;101503.66;105874;1256;61468;-57
2023/02/07 07:22:58;;;;;;;23.80;12.80;;;;;;;-4.83;100.00;101505.23;105794;1256;60721;-56
2023/02/07 07:25:26;;;;;;;23.20;12.10;;;;;;;-4.66;100.00;101501.91;105634;1256;75262;-57
2023/02/07 07:27:56;;;;;;;22.10;12.10;;;;;;;-4.39;100.00;101502.98;105524;1254;68496;-60
2023/02/07 07:30:25;;;;;;;22.80;12.10;;;;;;;-4.31;100.00;101500.98;105448;1257;73316;-57
2023/02/07 07:32:54;;;;;;;25.10;12.80;;;;;;;-4.18;100.00;101504.23;105604;1257;61424;-56
2023/02/07 07:35:23;;;;;;;22.70;12.20;;;;;;;-4.03;100.00;101505.35;105620;1254;61779;-56
2023/02/07 07:37:51;;;;;;;21.20;10.70;;;;;;;-4.09;100.00;101513.59;105854;1256;75650;-59
2023/02/07 07:40:20;;;;;;;22.40;12.20;;;;;;;-4.51;100.00;101521.70;105607;1256;67633;-58
2023/02/07 07:42:48;;;;;;;23.20;12.80;;;;;;;-4.92;100.00;101528.45;105480;1256;74262;-56
2023/02/07 07:45:40;;;;;;;20.00;11.20;;;;;;;-5.14;100.00;101542.23;105691;1252;61690;-59
2023/02/07 07:48:09;;;;;;;23.50;12.20;;;;;;;-5.54;100.00;101543.86;105445;1257;60414;-56
2023/02/07 07:50:37;;;;;;;23.60;12.30;;;;;;;-5.91;100.00;101538.73;105556;1253;73558;-56
2023/02/07 07:53:06;;;;;;;21.90;12.00;;;;;;;-6.22;100.00;101540.54;105432;1257;68628;-56
2023/02/07 07:55:35;;;;;;;22.40;12.40;;;;;;;-6.52;100.00;101553.88;105512;1256;74349;-56
2023/02/07 07:58:04;;;;;;;23.50;11.60;;;;;;;-6.75;100.00;101556.54;105454;1257;62665;-59
2023/02/07 08:00:36;;;;;;;18.50;9.90;;;;;;;-6.90;100.00;101556.42;105401;1256;61842;-56
2023/02/07 08:03:05;;;;;;;24.00;11.70;;;;;;;-7.11;100.00;101561.02;106071;1256;75708;-56
2023/02/07 08:05:33;;;;;;;24.40;11.40;;;;;;;-7.33;100.00;101563.56;105495;1256;68547;-59
2023/02/07 08:08:02;;;;;;;22.60;11.20;;;;;;;-7.36;100.00;101567.02;105203;1256;72179;-56
2023/02/07 08:10:31;;;;;;;21.60;11.20;;;;;;;-7.36;100.00;101570.55;105546;1254;61547;-57
2023/02/07 08:12:59;;;;;;;19.80;10.20;;;;;;;-7.33;100.00;101570.01;105482;1257;60648;-55
2023/02/07 08:15:29;;;;;;;19.70;10.10;;;;;;;-7.28;100.00;101575.78;105367;1252;75066;-59
2023/02/07 08:17:58;;;;;;;22.40;10.10;;;;;;;-7.19;100.00;101574.39;105128;1257;68926;-56
2023/02/07 08:20:26;;;;;;;20.80;10.50;;;;;;;-7.13;100.00;101572.03;105513;1257;74429;-56
2023/02/07 08:22:56;;;;;;;23.20;11.90;;;;;;;-7.12;100.00;101577.23;105550;1256;61407;-57
2023/02/07 08:25:25;;;;;;;24.30;11.30;;;;;;;-7.08;100.00;101578.16;105661;1257;60957;-58
2023/02/07 08:27:53;;;;;;;22.90;11.10;;;;;;;-7.15;100.00;101576.80;105804;1257;75418;-56
2023/02/07 08:30:22;;;;;;;19.70;9.30;;;;;;;-7.14;100.00;101577.13;105722;1254;67377;-57
2023/02/07 08:32:51;;;;;;;27.60;13.60;;;;;;;-6.97;100.00;101580.25;105777;1256;74412;-55
2023/02/07 08:35:20;;;;;;;24.30;12.00;;;;;;;-6.74;100.00;101584.05;105735;1254;61158;-55
2023/02/07 08:37:49;;;;;;;21.10;9.90;;;;;;;-6.63;100.00;101584.43;105772;1257;61900;-56
2023/02/07 08:40:18;;;;;;;17.70;9.00;;;;;;;-6.62;100.00;101584.25;105601;1256;75429;-55
2023/02/07 08:42:47;;;;;;;18.70;9.10;;;;;;;-6.76;100.00;101575.98;105620;1256;68713;-56
2023/02/07 08:45:16;;;;;;;20.80;9.90;;;;;;;-6.85;100.00;101568.13;105728;1254;74385;-55
2023/02/07 08:47:46;;;;;;;24.60;10.30;;;;;;;-6.70;100.00;101565.36;105948;1254;62748;-59
2023/02/07 08:50:14;;;;;;;17.10;9.50;;;;;;;-6.49;100.00;101561.26;105629;1256;62746;-56
2023/02/07 08:52:43;;;;;;;20.50;9.40;;;;;;;-6.44;100.00;101557.39;105674;1254;75319;-57
2023/02/07 08:55:12;;;;;;;20.20;10.20;;;;;;;-6.53;100.00;101559.33;105739;1257;67700;-58
2023/02/07 08:57:40;;;;;;;18.90;10.00;;;;;;;-6.64;100.00;101553.52;106207;1257;73928;-61
2023/02/07 09:00:10;;;;;;;19.80;10.70;;;;;;;-6.69;100.00;101545.88;105815;1255;61766;-55
2023/02/07 09:02:39;;;;;;;26.50;11.30;;;;;;;-6.58;100.00;101547.11;105541;1255;61602;-57
2023/02/07 09:05:09;;;;;;;18.30;9.50;;;;;;;-6.47;100.00;101544.95;105525;1253;74085;-57
2023/02/07 09:07:38;;;;;;;18.00;9.30;;;;;;;-6.51;100.00;101544.21;105891;1259;66763;-58
2023/02/07 09:10:09;;;;;;;19.00;10.10;;;;;;;-6.48;100.00;101529.09;105633;1256;74218;-57
2023/02/07 09:12:37;;;;;;;21.60;10.40;;;;;;;-6.38;100.00;101537.11;105619;1257;62587;-56
2023/02/07 09:15:06;;;;;;;21.40;10.40;;;;;;;-6.31;100.00;101535.55;105743;1257;61668;-57
2023/02/07 09:17:36;;;;;;;17.50;9.70;;;;;;;-6.22;100.00;101529.19;105714;1257;74334;-58
2023/02/07 09:20:05;;;;;;;18.20;10.20;;;;;;;-6.09;100.00;101532.38;105745;1256;68990;-58
2023/02/07 09:23:16;;;;;;;22.40;10.50;;;;;;;-6.01;100.00;101526.38;105713;1254;73770;-57
2023/02/07 09:25:22;;;;;;;16.30;9.00;;;;;;;-5.82;100.00;101524.25;105866;1257;61679;-60
2023/02/07 09:27:51;;;;;;;20.80;9.20;;;;;;;-5.60;100.00;101530.34;105395;1256;61567;-55
2023/02/07 09:30:20;;;;;;;16.20;9.40;;;;;;;-5.39;100.00;101536.27;106031;1254;75623;-56
2023/02/07 09:32:48;;;;;;;16.80;8.60;;;;;;;-5.18;100.00;101534.06;106040;1254;67540;-57
2023/02/07 09:35:17;;;;;;;19.40;9.10;;;;;;;-5.07;100.00;101534.89;106003;1254;73607;-57
2023/02/07 09:37:45;;;;;;;16.40;8.60;;;;;;;-4.97;100.00;101541.14;105879;1254;61176;-56
2023/02/07 09:40:18;;;;;;;15.20;8.90;;;;;;;-4.93;100.00;101539.64;105821;1254;61971;-55
2023/02/07 09:42:49;;;;;;;15.40;8.40;;;;;;;-4.89;100.00;101539.50;106163;1254;75655;-60
2023/02/07 09:45:20;;;;;;;17.50;10.00;;;;;;;-4.80;100.00;101539.05;105564;1257;68025;-60
2023/02/07 09:47:51;;;;;;;15.40;8.30;;;;;;;-4.65;100.00;101541.90;105409;1257;72904;-57
2023/02/07 09:50:24;;;;;;;18.80;10.00;;;;;;;-4.60;100.00;101531.40;105828;1252;60558;-57
2023/02/07 09:53:00;;;;;;;19.80;10.70;;;;;;;-4.60;100.00;101524.93;105733;1254;60878;-58
2023/02/07 09:55:40;;;;;;;21.50;10.90;;;;;;;-4.52;100.00;101523.80;105651;1261;75643;-57
2023/02/07 09:58:15;;;;;;;21.90;10.60;;;;;;;-4.39;100.00;101518.06;105824;1257;68616;-58
2023/02/07 10:00:46;;;;;;;16.60;9.70;;;;;;;-4.40;100.00;101520.13;105887;1254;73370;-57
2023/02/07 10:03:22;;;;;;;19.00;10.30;;;;;;;-4.49;100.00;101513.53;105724;1252;62377;-57
2023/02/07 10:05:58;;;;;;;19.80;9.60;;;;;;;-4.46;100.00;101518.50;105791;1253;61871;-58
2023/02/07 10:08:48;;;;;;;21.00;10.50;;;;;;;-4.46;100.00;101519.34;105804;1254;75370;-57
2023/02/07 10:11:41;;;;;;;19.00;9.90;;;;;;;-4.42;100.00;101518.84;105887;1256;67954;-56
2023/02/07 10:14:23;;;;;;;19.70;9.30;;;;;;;-4.25;100.00;101512.27;105939;1254;73328;-60
2023/02/07 10:17:17;;;;;;;16.70;10.30;;;;;;;-4.21;100.00;101521.64;105541;1257;61991;-57
2023/02/07 10:20:40;;;;;;;19.70;10.80;;;;;;;-4.19;100.00;101526.83;105696;1256;61083;-56
2023/02/07 10:23:15;;;;;;;19.90;8.60;;;;;;;-3.99;100.00;101525.56;105962;1257;75409;-57
2023/02/07 10:26:03;;;;;;;19.10;10.00;;;;;;;-3.77;100.00;101526.10;105751;1254;67633;-57
2023/02/07 10:28:55;;;;;;;17.90;9.00;;;;;;;-3.73;100.00;101527.28;105598;1255;74106;-57
2023/02/07 10:31:24;;;;;;;14.10;8.60;;;;;;;-3.90;100.00;101520.65;105743;1254;60887;-56
2023/02/07 10:33:57;;;;;;;16.50;9.00;;;;;;;-4.19;100.00;101521.90;105666;1254;60863;-56
2023/02/07 10:36:28;;;;;;;15.90;8.80;;;;;;;-4.36;100.00;101524.60;105810;1254;74285;-58
2023/02/07 10:39:13;;;;;;;18.60;9.10;;;;;;;-4.31;100.00;101526.76;105675;1257;67302;-57
2023/02/07 10:41:42;;;;;;;18.30;8.80;;;;;;;-4.37;100.00;101524.95;105587;1259;71806;-62
2023/02/07 10:44:16;;;;;;;16.00;8.60;;;;;;;-4.39;100.00;101524.00;105978;1254;61869;-58
2023/02/07 10:46:46;;;;;;;21.40;10.30;;;;;;;-4.39;100.00;101525.02;105916;1254;60356;-58
2023/02/07 10:49:19;;;;;;;13.60;8.00;;;;;;;-4.44;100.00;101522.33;106062;1254;73757;-58
2023/02/07 10:51:56;;;;;;;19.70;10.30;;;;;;;-4.48;100.00;101520.10;105909;1254;68559;-56
2023/02/07 10:54:25;;;;;;;18.00;10.20;;;;;;;-4.39;100.00;101521.27;105793;1254;74162;-56
2023/02/07 10:56:54;;;;;;;20.00;9.80;;;;;;;-4.30;100.00;101517.05;106010;1257;60510;-56
2023/02/07 10:59:39;;;;;;;17.60;9.40;;;;;;;-4.21;100.00;101520.61;106167;1256;60421;-57
2023/02/07 11:02:23;;;;;;;16.90;8.50;;;;;;;-4.14;100.00;101521.58;105801;1252;74347;-56
2023/02/07 11:04:53;;;;;;;19.10;9.50;;;;;;;-4.18;100.00;101519.80;106013;1254;66799;-58
2023/02/07 11:07:21;;;;;;;18.80;9.30;;;;;;;-4.16;100.00;101523.33;105906;1257;73786;-56
2023/02/07 11:09:50;;;;;;;15.10;8.90;;;;;;;-4.24;100.00;101521.77;105673;1256;61872;-56
2023/02/07 11:12:20;;;;;;;18.80;9.10;;;;;;;-4.39;100.00;101527.90;105740;1254;61832;-56